createdAt,value
2023-05-19T00:02:23.681Z,1.85
2023-05-19T00:04:54.433Z,1.90
2023-05-19T00:07:26.299Z,1.80
2023-05-19T00:09:53.560Z,2.05
2023-05-19T00:12:21.352Z,2.00
2023-05-19T00:14:48.408Z,1.73
2023-05-19T00:17:17.084Z,1.80
2023-05-19T00:19:45.424Z,1.80
2023-05-19T00:22:12.392Z,1.42
2023-05-19T00:24:43.885Z,1.60
2023-05-19T00:27:13.008Z,2.00
2023-05-19T00:29:40.110Z,1.83
2023-05-19T00:32:07.317Z,1.98
2023-05-19T00:34:34.378Z,1.80
2023-05-19T00:37:01.373Z,1.98
2023-05-19T00:39:28.437Z,2.15
2023-05-19T00:42:06.009Z,1.73
2023-05-19T00:44:33.034Z,1.67
2023-05-19T00:46:59.984Z,1.98
2023-05-19T00:49:27.042Z,1.92
2023-05-19T00:51:54.784Z,2.25
2023-05-19T00:54:22.141Z,2.67
2023-05-19T00:56:50.206Z,1.90
2023-05-19T00:59:17.402Z,1.90
2023-05-19T01:01:48.074Z,1.80
2023-05-19T01:04:25.686Z,1.90
2023-05-19T01:06:56.699Z,1.60
2023-05-19T01:09:24.570Z,1.80
2023-05-19T01:11:52.024Z,2.08
2023-05-19T01:14:20.416Z,2.08
2023-05-19T01:17:14.533Z,1.80
2023-05-19T01:19:41.392Z,1.70
2023-05-19T01:22:23.200Z,2.25
2023-05-19T01:24:59.230Z,1.77
2023-05-19T01:27:53.573Z,2.17
2023-05-19T01:30:43.035Z,2.17
2023-05-19T01:33:14.475Z,1.83
2023-05-19T01:35:43.595Z,1.90
2023-05-19T01:38:12.130Z,2.10
2023-05-19T01:40:43.858Z,1.83
2023-05-19T01:43:14.755Z,2.20
2023-05-19T01:45:43.059Z,1.80
2023-05-19T01:48:13.130Z,2.03
2023-05-19T01:50:41.427Z,2.53
2023-05-19T01:53:08.682Z,1.80
2023-05-19T01:55:42.381Z,2.03
2023-05-19T01:58:40.404Z,2.10
2023-05-19T02:01:34.768Z,2.35
2023-05-19T02:04:05.352Z,2.38
2023-05-19T02:06:55.614Z,2.55
2023-05-19T02:09:40.804Z,1.98
2023-05-19T02:12:12.354Z,1.67
2023-05-19T02:14:45.732Z,1.92
2023-05-19T02:17:16.917Z,2.50
2023-05-19T02:19:44.645Z,2.38
2023-05-19T02:22:11.604Z,2.10
2023-05-19T02:24:39.607Z,2.92
2023-05-19T02:27:06.664Z,2.22
2023-05-19T02:29:33.550Z,2.08
2023-05-19T02:32:02.318Z,2.70
2023-05-19T02:34:29.336Z,2.50
2023-05-19T02:36:56.753Z,1.98
2023-05-19T02:39:26.627Z,2.42
2023-05-19T02:41:53.423Z,3.03
2023-05-19T02:44:20.648Z,2.20
2023-05-19T02:46:47.616Z,2.30
2023-05-19T02:49:17.556Z,2.28
2023-05-19T02:51:45.111Z,2.90
2023-05-19T02:54:12.432Z,2.38
2023-05-19T02:56:42.252Z,2.35
2023-05-19T02:59:09.192Z,2.35
2023-05-19T03:01:37.951Z,2.50
2023-05-19T03:04:05.465Z,2.33
2023-05-19T03:06:33.206Z,2.53
2023-05-19T03:09:00.010Z,2.63
2023-05-19T03:11:27.326Z,1.95
2023-05-19T03:13:54.195Z,2.50
2023-05-19T03:16:22.327Z,2.40
2023-05-19T03:18:49.413Z,2.40
2023-05-19T03:21:16.454Z,2.55
2023-05-19T03:23:43.408Z,2.28
2023-05-19T03:26:10.164Z,2.10
2023-05-19T03:28:37.155Z,2.08
2023-05-19T03:31:05.185Z,2.00
2023-05-19T03:33:44.884Z,2.20
2023-05-19T03:36:12.796Z,2.35
2023-05-19T03:38:39.828Z,1.80
2023-05-19T03:41:06.773Z,2.35
2023-05-19T03:43:33.736Z,1.90
2023-05-19T03:46:00.948Z,1.73
2023-05-19T03:48:27.897Z,1.83
2023-05-19T03:50:54.832Z,2.45
2023-05-19T03:53:21.776Z,2.10
2023-05-19T03:55:49.816Z,1.85
2023-05-19T03:58:19.287Z,1.80
2023-05-19T04:00:46.266Z,2.10
2023-05-19T04:03:13.150Z,2.05
2023-05-19T04:05:44.872Z,2.17
2023-05-19T04:08:11.825Z,1.70
2023-05-19T04:10:44.563Z,1.75
2023-05-19T04:13:11.841Z,2.05
2023-05-19T04:15:38.961Z,2.08
2023-05-19T04:18:05.897Z,2.13
2023-05-19T04:20:33.105Z,1.80
2023-05-19T04:23:00.287Z,1.90
2023-05-19T04:25:30.083Z,2.00
2023-05-19T04:27:58.026Z,2.08
2023-05-19T04:30:25.318Z,1.77
2023-05-19T04:32:52.279Z,1.80
2023-05-19T04:35:19.727Z,1.75
2023-05-19T04:37:46.794Z,2.25
2023-05-19T04:40:17.697Z,2.05
2023-05-19T04:42:48.069Z,2.15
2023-05-19T04:45:15.233Z,1.55
2023-05-19T04:47:42.696Z,1.88
2023-05-19T04:50:11.404Z,1.50
2023-05-19T04:52:38.413Z,1.55
2023-05-19T04:55:05.800Z,1.77
2023-05-19T04:57:32.693Z,1.80
2023-05-19T05:00:02.730Z,1.67
2023-05-19T05:02:29.669Z,1.80
2023-05-19T05:04:57.087Z,1.75
2023-05-19T05:07:24.454Z,1.65
2023-05-19T05:09:56.803Z,1.60
2023-05-19T05:12:24.473Z,1.98
2023-05-19T05:14:51.705Z,1.83
2023-05-19T05:17:20.615Z,1.48
2023-05-19T05:19:48.673Z,1.77
2023-05-19T05:22:15.993Z,1.85
2023-05-19T05:24:46.047Z,1.42
2023-05-19T05:27:13.894Z,1.60
2023-05-19T05:29:40.718Z,1.60
2023-05-19T05:32:08.347Z,1.77
2023-05-19T05:34:37.898Z,1.48
2023-05-19T05:37:04.798Z,1.33
2023-05-19T05:39:32.003Z,1.42
2023-05-19T05:41:58.852Z,1.52
2023-05-19T05:44:26.024Z,1.98
2023-05-19T05:46:54.816Z,1.83
2023-05-19T05:49:24.457Z,1.50
2023-05-19T05:52:05.154Z,1.70
2023-05-19T05:54:34.032Z,1.60
2023-05-19T05:57:03.878Z,1.60
2023-05-19T05:59:34.011Z,1.70
2023-05-19T06:02:01.431Z,1.50
2023-05-19T06:04:28.273Z,1.70
2023-05-19T06:07:01.169Z,1.38
2023-05-19T06:09:31.851Z,1.58
2023-05-19T06:12:02.016Z,1.67
2023-05-19T06:14:29.010Z,1.70
2023-05-19T06:16:55.861Z,1.50
2023-05-19T06:19:22.887Z,1.60
2023-05-19T06:21:50.070Z,1.88
2023-05-19T06:24:17.396Z,2.28
2023-05-19T06:26:44.517Z,1.73
2023-05-19T06:29:18.916Z,1.10
2023-05-19T06:31:59.860Z,1.00
2023-05-19T06:34:27.014Z,1.42
2023-05-19T06:36:54.044Z,1.70
2023-05-19T06:39:23.572Z,1.77
2023-05-19T06:41:50.626Z,1.30
2023-05-19T06:44:19.810Z,1.48
2023-05-19T06:46:48.127Z,1.10
2023-05-19T06:49:15.422Z,1.20
2023-05-19T06:51:42.585Z,1.20
2023-05-19T06:54:11.235Z,1.17
2023-05-19T06:56:40.699Z,1.40
2023-05-19T06:59:07.748Z,1.20
2023-05-19T07:01:34.798Z,1.67
2023-05-19T07:04:02.202Z,1.38
2023-05-19T07:06:29.785Z,1.30
2023-05-19T07:08:59.027Z,1.55
2023-05-19T07:11:26.892Z,1.88
2023-05-19T07:13:53.764Z,1.50
2023-05-19T07:16:23.536Z,1.50
2023-05-19T07:18:50.722Z,1.20
2023-05-19T07:21:17.748Z,1.20
2023-05-19T07:23:45.712Z,1.50
2023-05-19T07:26:15.669Z,1.58
2023-05-19T07:28:43.573Z,1.90
2023-05-19T07:31:12.942Z,1.42
2023-05-19T07:33:39.689Z,1.50
2023-05-19T07:36:06.897Z,1.48
2023-05-19T07:38:34.979Z,1.60
2023-05-19T07:41:02.885Z,1.60
2023-05-19T07:43:29.907Z,1.88
2023-05-19T07:45:57.229Z,1.60
2023-05-19T07:48:25.885Z,1.60
2023-05-19T07:51:02.468Z,1.75
2023-05-19T07:53:29.488Z,1.60
2023-05-19T07:55:58.414Z,1.40
2023-05-19T07:58:25.694Z,1.45
2023-05-19T08:00:53.547Z,1.63
2023-05-19T08:03:21.137Z,2.00
2023-05-19T08:05:48.142Z,1.42
2023-05-19T08:08:17.137Z,1.48
2023-05-19T08:10:44.132Z,1.35
2023-05-19T08:13:11.122Z,1.60
2023-05-19T08:15:38.054Z,1.50
2023-05-19T08:18:05.548Z,1.73
2023-05-19T08:20:33.031Z,1.40
2023-05-19T08:23:00.414Z,1.48
2023-05-19T08:25:27.429Z,1.67
2023-05-19T08:27:54.636Z,1.58
2023-05-19T08:30:21.602Z,1.77
2023-05-19T08:32:48.944Z,1.38
2023-05-19T08:35:16.121Z,1.48
2023-05-19T08:37:43.169Z,1.13
2023-05-19T08:40:16.819Z,1.33
2023-05-19T08:42:45.098Z,1.30
2023-05-19T08:45:12.727Z,1.30
2023-05-19T08:47:46.462Z,1.13
2023-05-19T08:50:21.545Z,2.00
2023-05-19T08:52:55.856Z,1.08
2023-05-19T08:56:01.596Z,1.50
2023-05-19T08:58:29.463Z,1.33
2023-05-19T09:00:58.036Z,1.40
2023-05-19T09:03:26.735Z,1.30
2023-05-19T09:05:53.852Z,1.48
2023-05-19T09:08:21.108Z,1.40
2023-05-19T09:10:47.917Z,1.42
2023-05-19T09:13:15.050Z,1.27
2023-05-19T09:15:43.150Z,1.58
2023-05-19T09:18:15.274Z,1.70
2023-05-19T09:20:49.157Z,1.50
2023-05-19T09:23:17.462Z,1.42
2023-05-19T09:25:51.219Z,1.33
2023-05-19T09:28:33.857Z,1.23
2023-05-19T09:31:06.697Z,1.52
2023-05-19T09:33:35.888Z,1.20
2023-05-19T09:36:08.782Z,1.30
2023-05-19T09:38:36.597Z,1.05
2023-05-19T09:41:05.226Z,1.60
2023-05-19T09:43:33.910Z,1.33
2023-05-19T09:46:05.594Z,1.48
2023-05-19T09:48:33.470Z,1.38
2023-05-19T09:51:10.552Z,1.42
2023-05-19T09:53:39.446Z,1.23
2023-05-19T09:56:09.050Z,1.10
2023-05-19T09:58:37.006Z,1.50
2023-05-19T10:01:04.936Z,1.40
2023-05-19T10:03:35.420Z,1.08
2023-05-19T10:06:05.200Z,1.50
2023-05-19T10:08:34.466Z,1.40
2023-05-19T10:11:02.667Z,1.27
2023-05-19T10:13:29.944Z,1.30
2023-05-19T10:15:59.694Z,1.52
2023-05-19T10:18:31.389Z,1.48
2023-05-19T10:21:00.494Z,1.63
2023-05-19T10:23:27.606Z,1.20
2023-05-19T10:26:02.509Z,1.30
2023-05-19T10:28:40.495Z,1.33
2023-05-19T10:31:13.815Z,1.60
2023-05-19T10:34:03.934Z,1.48
2023-05-19T10:36:36.828Z,1.38
2023-05-19T10:39:14.301Z,1.63
2023-05-19T10:41:47.201Z,1.10
2023-05-19T10:44:51.696Z,1.75
2023-05-19T10:47:25.908Z,2.13
2023-05-19T10:49:54.723Z,1.38
2023-05-19T10:52:30.366Z,1.20
2023-05-19T10:55:01.294Z,1.50
2023-05-19T10:57:28.680Z,1.55
2023-05-19T11:00:01.059Z,1.15
2023-05-19T11:02:42.324Z,1.27
2023-05-19T11:05:18.334Z,1.45
2023-05-19T11:07:56.814Z,1.77
2023-05-19T11:10:24.614Z,1.50
2023-05-19T11:12:52.487Z,1.40
2023-05-19T11:15:26.933Z,1.40
2023-05-19T11:17:54.379Z,2.03
2023-05-19T11:20:29.335Z,1.08
2023-05-19T11:23:02.990Z,1.35
2023-05-19T11:25:50.066Z,1.13
2023-05-19T11:28:19.984Z,1.30
2023-05-19T11:30:52.771Z,1.27
2023-05-19T11:33:27.495Z,1.40
2023-05-19T11:35:59.393Z,1.27
2023-05-19T11:38:30.467Z,1.35
2023-05-19T11:40:57.705Z,1.48
2023-05-19T11:43:26.268Z,1.50
2023-05-19T11:45:56.398Z,1.38
2023-05-19T11:48:26.758Z,1.58
2023-05-19T11:50:54.202Z,1.23
2023-05-19T11:53:21.226Z,1.75
2023-05-19T11:55:49.861Z,1.15
2023-05-19T11:58:17.563Z,1.85
2023-05-19T12:00:48.816Z,1.92
2023-05-19T12:03:15.960Z,1.42
2023-05-19T12:05:49.199Z,1.17
2023-05-19T12:08:19.975Z,1.33
2023-05-19T12:10:52.319Z,1.35
2023-05-19T12:13:20.035Z,1.15
2023-05-19T12:15:47.342Z,1.38
2023-05-19T12:18:16.899Z,1.00
2023-05-19T12:20:43.925Z,1.30
2023-05-19T12:23:19.245Z,1.50
2023-05-19T12:25:47.832Z,1.75
2023-05-19T12:28:16.609Z,1.67
2023-05-19T12:30:49.029Z,1.35
2023-05-19T12:33:16.552Z,1.40
2023-05-19T12:35:43.597Z,1.58
2023-05-19T12:38:10.659Z,1.30
2023-05-19T12:40:44.092Z,1.40
2023-05-19T12:43:31.451Z,1.20
2023-05-19T12:45:58.420Z,1.30
2023-05-19T12:48:25.450Z,1.30
2023-05-19T12:50:54.438Z,1.40
2023-05-19T12:53:21.684Z,1.50
2023-05-19T12:55:48.684Z,1.58
2023-05-19T12:58:16.199Z,1.60
2023-05-19T13:00:45.712Z,1.50
2023-05-19T13:03:20.644Z,1.60
2023-05-19T13:05:50.469Z,1.33
2023-05-19T13:08:20.468Z,1.25
2023-05-19T13:10:49.331Z,1.30
2023-05-19T13:13:17.080Z,1.50
2023-05-19T13:15:49.208Z,1.55
2023-05-19T13:18:16.820Z,1.25
2023-05-19T13:20:45.032Z,1.40
2023-05-19T13:23:12.780Z,1.60
2023-05-19T13:25:40.585Z,1.20
2023-05-19T13:28:08.127Z,1.30
2023-05-19T13:30:37.104Z,1.45
2023-05-19T13:33:04.717Z,1.75
2023-05-19T13:35:37.621Z,1.65
2023-05-19T13:38:12.439Z,1.35
2023-05-19T13:40:40.146Z,1.30
2023-05-19T13:43:08.007Z,1.73
2023-05-19T13:45:35.182Z,1.85
2023-05-19T13:48:02.082Z,1.73
2023-05-19T13:50:29.580Z,1.40
2023-05-19T13:52:56.532Z,1.17
2023-05-19T13:55:23.714Z,1.73
2023-05-19T13:57:51.121Z,1.88
2023-05-19T14:00:19.170Z,1.70
2023-05-19T14:02:46.547Z,1.77
2023-05-19T14:05:13.590Z,1.40
2023-05-19T14:07:40.712Z,1.90
2023-05-19T14:10:08.443Z,1.55
2023-05-19T14:12:49.521Z,2.15
2023-05-19T14:15:23.200Z,1.65
2023-05-19T14:17:50.546Z,1.95
2023-05-19T14:20:17.525Z,1.60
2023-05-19T14:22:44.296Z,1.80
2023-05-19T14:25:16.715Z,1.90
2023-05-19T14:27:43.567Z,1.67
2023-05-19T14:30:13.577Z,1.90
2023-05-19T14:32:40.537Z,2.00
2023-05-19T14:35:08.073Z,1.60
2023-05-19T14:37:35.129Z,1.60
2023-05-19T14:40:02.269Z,1.60
2023-05-19T14:42:29.181Z,1.35
2023-05-19T14:44:56.273Z,1.38
2023-05-19T14:47:23.984Z,1.90
2023-05-19T14:49:52.511Z,1.45
2023-05-19T14:52:28.632Z,1.55
2023-05-19T14:54:56.304Z,2.08
2023-05-19T14:57:23.459Z,1.27
2023-05-19T14:59:50.813Z,1.33
2023-05-19T15:02:17.681Z,1.17
2023-05-19T15:04:44.636Z,1.40
2023-05-19T15:07:11.896Z,1.33
2023-05-19T15:09:39.981Z,1.40
2023-05-19T15:12:06.966Z,1.30
2023-05-19T15:14:34.011Z,1.77
2023-05-19T15:17:04.119Z,1.40
2023-05-19T15:19:31.474Z,1.40
2023-05-19T15:22:01.493Z,1.20
2023-05-19T15:24:28.267Z,1.50
2023-05-19T15:26:55.830Z,1.17
2023-05-19T15:29:22.948Z,1.35
2023-05-19T15:31:52.012Z,1.65
2023-05-19T15:34:20.950Z,1.50
2023-05-19T15:36:48.119Z,1.27
2023-05-19T15:39:15.109Z,1.25
2023-05-19T15:41:42.058Z,1.25
2023-05-19T15:44:08.895Z,1.40
2023-05-19T15:46:35.965Z,1.02
2023-05-19T15:49:03.683Z,1.23
2023-05-19T15:51:31.466Z,1.73
2023-05-19T15:53:58.273Z,1.35
2023-05-19T15:56:25.260Z,1.23
2023-05-19T15:58:52.333Z,1.65
2023-05-19T16:01:19.676Z,1.23
2023-05-19T16:03:46.883Z,1.20
2023-05-19T16:06:14.254Z,1.27
2023-05-19T16:08:41.132Z,1.40
2023-05-19T16:11:08.286Z,1.38
2023-05-19T16:13:35.303Z,1.50
2023-05-19T16:16:02.597Z,1.13
2023-05-19T16:18:29.871Z,1.38
2023-05-19T16:20:57.222Z,1.00
2023-05-19T16:23:25.031Z,1.20
2023-05-19T16:25:52.500Z,1.67
2023-05-19T16:28:19.582Z,1.50
2023-05-19T16:30:46.687Z,1.25
2023-05-19T16:33:13.684Z,1.27
2023-05-19T16:35:40.743Z,1.50
2023-05-19T16:38:07.714Z,1.25
2023-05-19T16:40:34.718Z,1.40
2023-05-19T16:43:01.985Z,1.40
2023-05-19T16:45:29.024Z,1.55
2023-05-19T16:47:59.588Z,1.77
2023-05-19T16:50:26.620Z,1.05
2023-05-19T16:52:53.510Z,1.45
2023-05-19T16:55:24.865Z,1.13
2023-05-19T16:57:51.868Z,1.38
2023-05-19T17:00:19.155Z,1.50
2023-05-19T17:02:47.530Z,1.30
2023-05-19T17:05:15.186Z,1.20
2023-05-19T17:07:42.080Z,1.45
2023-05-19T17:10:09.651Z,1.30
2023-05-19T17:12:37.151Z,1.40
2023-05-19T17:15:04.663Z,1.23
2023-05-19T17:17:31.481Z,1.30
2023-05-19T17:19:58.640Z,1.50
2023-05-19T17:22:26.399Z,1.33
2023-05-19T17:24:54.228Z,1.48
2023-05-19T17:27:21.361Z,1.73
2023-05-19T17:29:48.621Z,1.58
2023-05-19T17:32:15.740Z,1.35
2023-05-19T17:34:42.558Z,1.55
2023-05-19T17:37:18.944Z,1.33
2023-05-19T17:39:46.066Z,1.25
2023-05-19T17:42:15.404Z,1.02
2023-05-19T17:44:42.452Z,1.60
2023-05-19T17:47:09.409Z,1.52
2023-05-19T17:49:36.195Z,1.75
2023-05-19T17:52:03.720Z,1.27
2023-05-19T17:54:31.083Z,1.40
2023-05-19T17:57:01.773Z,1.30
2023-05-19T17:59:29.105Z,1.48
2023-05-19T18:01:57.851Z,1.00
2023-05-19T18:04:25.810Z,2.25
2023-05-19T18:06:53.757Z,1.55
2023-05-19T18:09:30.850Z,1.30
2023-05-19T18:12:02.397Z,1.23
2023-05-19T18:14:29.519Z,1.38
2023-05-19T18:16:56.799Z,1.08
2023-05-19T18:19:23.957Z,1.42
2023-05-19T18:21:51.741Z,1.55
2023-05-19T18:24:18.817Z,1.52
2023-05-19T18:26:45.980Z,1.35
2023-05-19T18:29:14.748Z,1.30
2023-05-19T18:31:42.125Z,1.63
2023-05-19T18:34:09.279Z,1.08
2023-05-19T18:36:36.545Z,1.23
2023-05-19T18:39:04.685Z,1.65
2023-05-19T18:41:32.465Z,1.45
2023-05-19T18:43:59.331Z,2.08
2023-05-19T18:46:26.486Z,2.42
2023-05-19T18:48:53.423Z,1.10
2023-05-19T18:51:21.579Z,1.80
2023-05-19T18:53:50.212Z,1.67
2023-05-19T18:56:27.895Z,1.40
2023-05-19T18:58:56.882Z,1.90
2023-05-19T19:01:23.980Z,1.77
2023-05-19T19:03:51.506Z,1.70
2023-05-19T19:06:18.452Z,1.77
2023-05-19T19:08:45.685Z,1.50
2023-05-19T19:11:12.846Z,1.55
2023-05-19T19:13:39.979Z,1.70
2023-05-19T19:16:07.338Z,2.28
2023-05-19T19:18:37.451Z,1.80
2023-05-19T19:21:08.044Z,1.77
2023-05-19T19:23:35.135Z,1.70
2023-05-19T19:26:02.253Z,1.63
2023-05-19T19:28:29.412Z,2.05
2023-05-19T19:30:56.338Z,2.13
2023-05-19T19:33:23.234Z,1.77
2023-05-19T19:35:50.261Z,1.20
2023-05-19T19:38:17.409Z,1.67
2023-05-19T19:40:44.214Z,1.83
2023-05-19T19:43:11.663Z,2.33
2023-05-19T19:45:42.234Z,2.13
2023-05-19T19:48:09.442Z,1.48
2023-05-19T19:50:36.670Z,1.95
2023-05-19T19:53:04.027Z,2.42
2023-05-19T19:55:31.757Z,2.15
2023-05-19T19:57:58.664Z,1.73
2023-05-19T20:00:25.705Z,2.78
2023-05-19T20:03:04.401Z,1.98
2023-05-19T20:05:40.919Z,2.00
2023-05-19T20:08:10.205Z,1.80
2023-05-19T20:10:42.302Z,2.40
2023-05-19T20:13:14.472Z,1.77
2023-05-19T20:15:45.468Z,2.05
2023-05-19T20:18:15.588Z,2.30
2023-05-19T20:20:43.494Z,1.52
2023-05-19T20:23:10.328Z,2.47
2023-05-19T20:25:58.467Z,2.65
2023-05-19T20:28:29.637Z,2.20
2023-05-19T20:30:56.580Z,2.35
2023-05-19T20:33:23.796Z,1.65
2023-05-19T20:35:50.691Z,1.90
2023-05-19T20:38:17.849Z,2.15
2023-05-19T20:40:44.832Z,2.40
2023-05-19T20:43:11.918Z,2.47
2023-05-19T20:45:38.847Z,2.08
2023-05-19T20:48:06.380Z,2.10
2023-05-19T20:50:34.211Z,2.28
2023-05-19T20:53:01.587Z,2.10
2023-05-19T20:55:28.591Z,2.25
2023-05-19T20:57:56.064Z,2.30
2023-05-19T21:00:23.295Z,2.45
2023-05-19T21:02:50.366Z,2.40
2023-05-19T21:05:17.500Z,1.85
2023-05-19T21:07:44.507Z,2.17
2023-05-19T21:10:13.976Z,2.13
2023-05-19T21:12:41.022Z,2.08
2023-05-19T21:15:08.697Z,2.20
2023-05-19T21:17:35.799Z,3.03
2023-05-19T21:20:03.971Z,2.28
2023-05-19T21:22:31.577Z,2.38
2023-05-19T21:24:58.593Z,2.50
2023-05-19T21:27:25.845Z,2.20
2023-05-19T21:29:54.407Z,2.22
2023-05-19T21:32:21.865Z,2.72
2023-05-19T21:34:48.777Z,2.50
2023-05-19T21:37:17.522Z,2.58
2023-05-19T21:39:45.067Z,2.53
2023-05-19T21:42:14.573Z,2.53
2023-05-19T21:44:41.535Z,2.38
2023-05-19T21:47:08.590Z,2.45
2023-05-19T21:49:35.748Z,2.30
2023-05-19T21:52:02.742Z,2.35
2023-05-19T21:54:29.828Z,2.13
2023-05-19T21:56:56.617Z,2.30
2023-05-19T21:59:26.535Z,2.20
2023-05-19T22:01:53.486Z,2.05
2023-05-19T22:04:23.114Z,2.38
2023-05-19T22:06:50.054Z,2.50
2023-05-19T22:09:17.232Z,1.92
2023-05-19T22:11:46.800Z,2.10
2023-05-19T22:14:14.157Z,2.58
2023-05-19T22:16:41.680Z,2.70
2023-05-19T22:19:11.670Z,2.50
2023-05-19T22:21:38.698Z,2.17
2023-05-19T22:24:05.777Z,2.28
2023-05-19T22:26:32.729Z,2.45
2023-05-19T22:28:59.688Z,2.22
2023-05-19T22:31:26.866Z,2.58
2023-05-19T22:33:53.655Z,2.30
2023-05-19T22:36:20.714Z,2.20
2023-05-19T22:38:47.954Z,1.83
2023-05-19T22:41:16.956Z,2.13
2023-05-19T22:43:44.570Z,2.10
2023-05-19T22:46:11.585Z,2.50
2023-05-19T22:48:39.316Z,2.45
2023-05-19T22:51:06.531Z,1.95
2023-05-19T22:53:33.713Z,1.73
2023-05-19T22:56:00.854Z,2.00
2023-05-19T22:58:27.810Z,2.25
2023-05-19T23:00:54.669Z,2.50
2023-05-19T23:03:21.900Z,2.70
2023-05-19T23:05:48.625Z,2.17
2023-05-19T23:08:15.744Z,2.47
2023-05-19T23:10:42.688Z,2.15
2023-05-19T23:13:10.347Z,2.05
2023-05-19T23:15:37.322Z,2.28
2023-05-19T23:18:08.769Z,2.47
2023-05-19T23:20:36.104Z,2.40
2023-05-19T23:23:03.075Z,1.88
2023-05-19T23:25:30.136Z,2.22
2023-05-19T23:27:56.896Z,2.30
2023-05-19T23:30:23.731Z,2.22
2023-05-19T23:32:50.894Z,2.40
2023-05-19T23:35:18.040Z,2.10
2023-05-19T23:37:45.284Z,2.40
2023-05-19T23:40:12.529Z,2.22
2023-05-19T23:42:39.888Z,2.92
2023-05-19T23:45:07.372Z,2.00
2023-05-19T23:47:34.319Z,2.15
2023-05-19T23:50:01.422Z,2.65
2023-05-19T23:52:28.572Z,2.58
2023-05-19T23:54:55.429Z,2.67
2023-05-19T23:57:22.616Z,2.83
2023-05-19T23:59:49.714Z,2.40
